createdAt,value
2017-07-11T00:00:02.565Z,949.06
2017-07-11T00:01:02.580Z,949.04
2017-07-11T00:02:02.542Z,949.06
2017-07-11T00:03:02.645Z,949.01
2017-07-11T00:04:02.737Z,949.02
2017-07-11T00:05:02.569Z,949.03
2017-07-11T00:06:02.568Z,949.1
2017-07-11T00:07:02.548Z,949.13
2017-07-11T00:08:02.528Z,949.16
2017-07-11T00:09:02.541Z,949.17
2017-07-11T00:10:02.526Z,949.15
2017-07-11T00:11:02.681Z,949.12
2017-07-11T00:12:02.639Z,949.18
2017-07-11T00:13:02.519Z,949.23
2017-07-11T00:14:02.538Z,949.21
2017-07-11T00:15:02.525Z,949.16
2017-07-11T00:16:02.515Z,949.16
2017-07-11T00:17:02.523Z,949.15
2017-07-11T00:18:02.631Z,949.14
2017-07-11T00:19:02.676Z,949.13
2017-07-11T00:20:02.503Z,949.13
2017-07-11T00:21:02.640Z,949.11
2017-07-11T00:22:02.479Z,949.11
2017-07-11T00:23:02.499Z,949.08
2017-07-11T00:24:02.758Z,949.11
2017-07-11T00:25:02.485Z,949.14
2017-07-11T00:26:02.495Z,949.12
2017-07-11T00:27:02.533Z,949.14
2017-07-11T00:28:02.523Z,949.1
2017-07-11T00:29:02.720Z,949.08
2017-07-11T00:30:02.563Z,949.1
2017-07-11T00:31:02.591Z,949.13
2017-07-11T00:32:02.474Z,949.12
2017-07-11T00:33:02.446Z,949.11
2017-07-11T00:34:02.441Z,949.08
2017-07-11T00:35:02.496Z,949.06
2017-07-11T00:36:02.531Z,949.06
2017-07-11T00:37:02.461Z,949.08
2017-07-11T00:38:02.432Z,948.99
2017-07-11T00:39:02.474Z,949.01
2017-07-11T00:40:02.442Z,949.03
2017-07-11T00:41:02.442Z,949.01
2017-07-11T00:42:02.424Z,949.01
2017-07-11T00:43:02.414Z,949.03
2017-07-11T00:44:02.452Z,948.97
2017-07-11T00:45:02.411Z,949.03
2017-07-11T00:46:02.443Z,949.02
2017-07-11T00:47:02.422Z,949.02
2017-07-11T00:48:02.399Z,948.99
2017-07-11T00:49:02.544Z,949.01
2017-07-11T00:50:02.657Z,948.97
2017-07-11T00:51:02.388Z,948.93
2017-07-11T00:52:02.418Z,948.95
2017-07-11T00:53:02.434Z,948.91
2017-07-11T00:54:02.396Z,948.9
2017-07-11T00:55:02.553Z,948.81
2017-07-11T00:56:02.546Z,948.83
2017-07-11T00:57:02.415Z,948.82
2017-07-11T00:58:02.375Z,948.79
2017-07-11T00:59:02.501Z,948.8
2017-07-11T01:00:02.548Z,948.84
2017-07-11T01:01:02.373Z,948.82
2017-07-11T01:02:02.411Z,948.85
2017-07-11T01:03:02.409Z,948.82
2017-07-11T01:04:02.414Z,948.84
2017-07-11T01:05:02.498Z,948.77
2017-07-11T01:06:02.382Z,948.75
2017-07-11T01:07:02.344Z,948.76
2017-07-11T01:08:02.491Z,948.78
2017-07-11T01:09:02.356Z,948.77
2017-07-11T01:10:02.353Z,948.78
2017-07-11T01:11:02.333Z,948.79
2017-07-11T01:12:02.375Z,948.77
2017-07-11T01:13:02.481Z,948.77
2017-07-11T01:14:02.450Z,948.79
2017-07-11T01:15:02.313Z,948.82
2017-07-11T01:16:02.330Z,948.81
2017-07-11T01:17:02.308Z,948.8
2017-07-11T01:18:02.303Z,948.87
2017-07-11T01:19:02.447Z,948.87
2017-07-11T01:20:02.309Z,948.89
2017-07-11T01:21:02.295Z,948.87
2017-07-11T01:22:02.295Z,948.89
2017-07-11T01:23:02.377Z,948.86
2017-07-11T01:24:02.290Z,948.93
2017-07-11T01:25:02.281Z,948.94
2017-07-11T01:26:02.303Z,948.92
2017-07-11T01:27:02.276Z,948.89
2017-07-11T01:28:02.393Z,948.89
2017-07-11T01:29:02.353Z,948.9
2017-07-11T01:30:02.481Z,948.85
2017-07-11T01:31:02.262Z,948.83
2017-07-11T01:32:02.311Z,948.88
2017-07-11T01:33:02.266Z,948.86
2017-07-11T01:34:02.275Z,948.87
2017-07-11T01:35:02.251Z,948.85
2017-07-11T01:36:02.263Z,948.83
2017-07-11T01:37:02.390Z,948.8
2017-07-11T01:38:02.399Z,948.8
2017-07-11T01:39:02.250Z,948.73
2017-07-11T01:40:02.255Z,948.75
2017-07-11T01:41:02.230Z,948.75
2017-07-11T01:42:02.294Z,948.72
2017-07-11T01:43:02.225Z,948.75
2017-07-11T01:44:02.241Z,948.74
2017-07-11T01:45:02.219Z,948.77
2017-07-11T01:46:02.238Z,948.74
2017-07-11T01:47:02.212Z,948.71
2017-07-11T01:48:02.302Z,948.69
2017-07-11T01:49:02.227Z,948.66
2017-07-11T01:50:02.207Z,948.65
2017-07-11T01:51:02.199Z,948.64
2017-07-11T01:52:02.533Z,948.61
2017-07-11T01:53:02.200Z,948.59
2017-07-11T01:54:02.198Z,948.61
2017-07-11T01:55:02.185Z,948.64
2017-07-11T01:56:02.197Z,948.61
2017-07-11T01:57:02.179Z,948.64
2017-07-11T01:58:02.267Z,948.65
2017-07-11T01:59:02.323Z,948.63
2017-07-11T02:00:02.172Z,948.63
2017-07-11T02:01:02.193Z,948.65
2017-07-11T02:02:02.263Z,948.62
2017-07-11T02:03:02.162Z,948.6
2017-07-11T02:04:02.177Z,948.57
2017-07-11T02:05:02.239Z,948.53
2017-07-11T02:06:02.356Z,948.55
2017-07-11T02:07:02.242Z,948.57
2017-07-11T02:08:02.206Z,948.53
2017-07-11T02:09:02.208Z,948.52
2017-07-11T02:10:02.166Z,948.5
2017-07-11T02:11:02.269Z,948.5
2017-07-11T02:12:02.243Z,948.51
2017-07-11T02:13:02.145Z,948.5
2017-07-11T02:14:02.144Z,948.49
2017-07-11T02:15:02.124Z,948.5
2017-07-11T02:16:02.140Z,948.49
2017-07-11T02:17:02.230Z,948.48
2017-07-11T02:18:02.234Z,948.53
2017-07-11T02:19:02.116Z,948.52
2017-07-11T02:20:02.109Z,948.54
2017-07-11T02:21:02.138Z,948.49
2017-07-11T02:22:02.150Z,948.54
2017-07-11T02:23:02.167Z,948.51
2017-07-11T02:24:02.243Z,948.51
2017-07-11T02:25:02.100Z,948.54
2017-07-11T02:26:02.121Z,948.55
2017-07-11T02:27:02.255Z,948.57
2017-07-11T02:28:02.223Z,948.55
2017-07-11T02:29:02.082Z,948.54
2017-07-11T02:30:02.108Z,948.57
2017-07-11T02:31:02.130Z,948.55
2017-07-11T02:32:02.094Z,948.59
2017-07-11T02:33:02.068Z,948.59
2017-07-11T02:34:02.067Z,948.59
2017-07-11T02:35:02.199Z,948.61
2017-07-11T02:36:02.060Z,948.6
2017-07-11T02:37:02.071Z,948.6
2017-07-11T02:38:02.056Z,948.62
2017-07-11T02:39:02.275Z,948.62
2017-07-11T02:40:02.079Z,948.61
2017-07-11T02:41:02.045Z,948.61
2017-07-11T02:42:02.045Z,948.68
2017-07-11T02:43:02.039Z,948.67
2017-07-11T02:44:02.036Z,948.71
2017-07-11T02:45:02.032Z,948.71
2017-07-11T02:46:02.031Z,948.75
2017-07-11T02:47:02.029Z,948.8
2017-07-11T02:48:02.034Z,948.82
2017-07-11T02:49:02.041Z,948.84
2017-07-11T02:50:02.026Z,948.83
2017-07-11T02:51:02.037Z,948.83
2017-07-11T02:52:02.021Z,948.83
2017-07-11T02:53:02.032Z,948.83
2017-07-11T02:54:02.030Z,948.85
2017-07-11T02:55:02.004Z,948.9
2017-07-11T02:56:02.016Z,948.92
2017-07-11T02:57:02.006Z,948.86
2017-07-11T02:58:02.023Z,948.88
2017-07-11T02:59:02.001Z,948.87
2017-07-11T03:00:02.008Z,948.91
2017-07-11T03:01:01.985Z,948.91
2017-07-11T03:02:01.984Z,948.9
2017-07-11T03:03:01.979Z,948.94
2017-07-11T03:04:01.977Z,948.96
2017-07-11T03:05:01.982Z,948.97
2017-07-11T03:06:01.995Z,948.96
2017-07-11T03:07:01.968Z,948.93
2017-07-11T03:08:01.995Z,948.96
2017-07-11T03:09:02.001Z,949
2017-07-11T03:10:01.978Z,948.97
2017-07-11T03:11:01.973Z,949
2017-07-11T03:12:01.986Z,949
2017-07-11T03:13:01.982Z,949.05
2017-07-11T03:14:01.983Z,949.04
2017-07-11T03:15:02.007Z,949.07
2017-07-11T03:16:01.963Z,949.07
2017-07-11T03:17:02.113Z,949.02
2017-07-11T03:18:01.935Z,949.06
2017-07-11T03:19:01.958Z,949.08
2017-07-11T03:20:01.953Z,949.05
2017-07-11T03:21:01.958Z,949.06
2017-07-11T03:22:01.946Z,949.05
2017-07-11T03:23:01.930Z,949.09
2017-07-11T03:24:01.929Z,949.06
2017-07-11T03:25:01.982Z,949.06
2017-07-11T03:26:01.924Z,949.05
2017-07-11T03:27:01.907Z,949.07
2017-07-11T03:28:01.919Z,949.09
2017-07-11T03:29:01.908Z,949.06
2017-07-11T03:30:01.912Z,949.1
2017-07-11T03:31:02.069Z,949.09
2017-07-11T03:32:01.894Z,949.08
2017-07-11T03:33:01.891Z,949.07
2017-07-11T03:34:01.897Z,949.14
2017-07-11T03:35:01.884Z,949.09
2017-07-11T03:36:01.898Z,949.08
2017-07-11T03:37:01.880Z,949.11
2017-07-11T03:38:01.903Z,949.08
2017-07-11T03:39:01.872Z,949.13
2017-07-11T03:40:01.900Z,949.16
2017-07-11T03:41:01.866Z,949.18
2017-07-11T03:42:01.972Z,949.18
2017-07-11T03:43:01.878Z,949.19
2017-07-11T03:44:02.096Z,949.19
2017-07-11T03:45:01.869Z,949.23
2017-07-11T03:46:01.903Z,949.2
2017-07-11T03:47:01.909Z,949.19
2017-07-11T03:48:01.875Z,949.2
2017-07-11T03:49:01.843Z,949.19
2017-07-11T03:50:01.856Z,949.2
2017-07-11T03:51:01.996Z,949.18
2017-07-11T03:52:01.863Z,949.18
2017-07-11T03:53:01.831Z,949.15
2017-07-11T03:54:01.858Z,949.15
2017-07-11T03:55:01.824Z,949.23
2017-07-11T03:56:01.832Z,949.18
2017-07-11T03:57:01.818Z,949.23
2017-07-11T03:58:01.826Z,949.21
2017-07-11T03:59:01.835Z,949.22
2017-07-11T04:00:01.820Z,949.25
2017-07-11T04:01:01.804Z,949.19
2017-07-11T04:02:01.812Z,949.17
2017-07-11T04:03:01.799Z,949.27
2017-07-11T04:04:01.957Z,949.22
2017-07-11T04:05:01.794Z,949.16
2017-07-11T04:06:01.830Z,949.19
2017-07-11T04:07:01.791Z,949.25
2017-07-11T04:08:01.784Z,949.25
2017-07-11T04:09:01.781Z,949.27
2017-07-11T04:10:01.824Z,949.22
2017-07-11T04:11:01.814Z,949.25
2017-07-11T04:12:01.772Z,949.26
2017-07-11T04:13:01.768Z,949.22
2017-07-11T04:14:01.787Z,949.2
2017-07-11T04:15:01.762Z,949.19
2017-07-11T04:16:01.783Z,949.19
2017-07-11T04:17:01.758Z,949.23
2017-07-11T04:18:01.769Z,949.26
2017-07-11T04:19:01.785Z,949.27
2017-07-11T04:20:01.755Z,949.25
2017-07-11T04:21:01.767Z,949.28
2017-07-11T04:22:01.744Z,949.33
2017-07-11T04:23:01.754Z,949.33
2017-07-11T04:24:01.737Z,949.34
2017-07-11T04:25:01.734Z,949.32
2017-07-11T04:26:01.729Z,949.37
2017-07-11T04:27:01.727Z,949.33
2017-07-11T04:28:01.732Z,949.37
2017-07-11T04:29:01.722Z,949.4
2017-07-11T04:30:01.717Z,949.4
2017-07-11T04:31:01.718Z,949.39
2017-07-11T04:32:01.737Z,949.44
2017-07-11T04:33:01.709Z,949.44
2017-07-11T04:34:01.719Z,949.43
2017-07-11T04:35:01.703Z,949.42
2017-07-11T04:36:01.706Z,949.41
2017-07-11T04:37:01.712Z,949.42
2017-07-11T04:38:01.712Z,949.44
2017-07-11T04:39:01.709Z,949.45
2017-07-11T04:40:01.706Z,949.46
2017-07-11T04:41:01.685Z,949.43
2017-07-11T04:42:01.693Z,949.5
2017-07-11T04:43:01.680Z,949.49
2017-07-11T04:44:01.713Z,949.48
2017-07-11T04:45:01.704Z,949.51
2017-07-11T04:46:01.673Z,949.49
2017-07-11T04:47:01.668Z,949.51
2017-07-11T04:48:01.685Z,949.53
2017-07-11T04:49:01.663Z,949.49
2017-07-11T04:50:01.661Z,949.54
2017-07-11T04:51:01.657Z,949.5
2017-07-11T04:52:01.653Z,949.52
2017-07-11T04:53:01.649Z,949.54
2017-07-11T04:54:01.665Z,949.63
2017-07-11T04:55:01.704Z,949.58
2017-07-11T04:56:01.668Z,949.62
2017-07-11T04:57:01.644Z,949.6
2017-07-11T04:58:01.638Z,949.6
2017-07-11T04:59:01.677Z,949.59
2017-07-11T05:00:01.656Z,949.64
2017-07-11T05:01:01.628Z,949.64
2017-07-11T05:02:01.675Z,949.65
2017-07-11T05:03:01.653Z,949.65
2017-07-11T05:04:01.670Z,949.71
2017-07-11T05:05:01.666Z,949.68
2017-07-11T05:06:01.613Z,949.72
2017-07-11T05:07:01.647Z,949.73
2017-07-11T05:08:01.658Z,949.74
2017-07-11T05:09:01.651Z,949.77
2017-07-11T05:10:01.625Z,949.79
2017-07-11T05:11:01.664Z,949.75
2017-07-11T05:12:01.618Z,949.77
2017-07-11T05:13:01.602Z,949.82
2017-07-11T05:14:01.591Z,949.78
2017-07-11T05:15:01.627Z,949.86
2017-07-11T05:16:01.587Z,949.81
2017-07-11T05:17:01.598Z,949.83
2017-07-11T05:18:01.694Z,949.84
2017-07-11T05:19:01.608Z,949.9
2017-07-11T05:20:01.575Z,949.9
2017-07-11T05:21:01.627Z,949.9
2017-07-11T05:22:01.600Z,949.87
2017-07-11T05:23:01.627Z,949.85
2017-07-11T05:24:01.583Z,949.86
2017-07-11T05:25:01.582Z,949.87
2017-07-11T05:26:01.568Z,949.91
2017-07-11T05:27:01.558Z,949.89
2017-07-11T05:28:01.551Z,949.86
2017-07-11T05:29:01.549Z,949.87
2017-07-11T05:30:01.547Z,949.87
2017-07-11T05:31:01.559Z,949.92
2017-07-11T05:32:01.543Z,949.94
2017-07-11T05:33:01.567Z,949.93
2017-07-11T05:34:01.536Z,949.89
2017-07-11T05:35:01.531Z,949.88
2017-07-11T05:36:01.558Z,949.89
2017-07-11T05:37:01.572Z,949.88
2017-07-11T05:38:01.523Z,949.88
2017-07-11T05:39:01.534Z,949.85
2017-07-11T05:40:01.523Z,949.84
2017-07-11T05:41:01.537Z,949.85
2017-07-11T05:42:01.517Z,949.85
2017-07-11T05:43:01.528Z,949.86
2017-07-11T05:44:01.538Z,949.93
2017-07-11T05:45:01.599Z,949.85
2017-07-11T05:46:01.509Z,949.88
2017-07-11T05:47:01.524Z,949.89
2017-07-11T05:48:01.537Z,949.88
2017-07-11T05:49:01.515Z,949.86
2017-07-11T05:50:01.540Z,949.85
2017-07-11T05:51:01.507Z,949.91
2017-07-11T05:52:01.483Z,949.88
2017-07-11T05:53:01.480Z,949.91
2017-07-11T05:54:01.493Z,949.92
2017-07-11T05:55:01.502Z,949.91
2017-07-11T05:56:01.470Z,949.84
2017-07-11T05:57:01.546Z,949.91
2017-07-11T05:58:01.464Z,949.91
2017-07-11T05:59:01.460Z,949.93
2017-07-11T06:00:01.464Z,949.93
2017-07-11T06:01:01.455Z,949.95
2017-07-11T06:02:01.474Z,949.9
2017-07-11T06:03:01.448Z,949.9
2017-07-11T06:04:01.455Z,949.92
2017-07-11T06:05:01.441Z,949.95
2017-07-11T06:06:01.493Z,949.96
2017-07-11T06:07:01.437Z,949.95
2017-07-11T06:08:01.450Z,949.95
2017-07-11T06:09:01.452Z,949.95
2017-07-11T06:10:01.440Z,949.97
2017-07-11T06:11:01.457Z,949.99
2017-07-11T06:12:01.438Z,949.98
2017-07-11T06:13:01.432Z,950.1
2017-07-11T06:14:01.426Z,950.03
2017-07-11T06:15:01.411Z,950.06
2017-07-11T06:16:01.426Z,950.07
2017-07-11T06:17:01.407Z,950.09
2017-07-11T06:18:01.428Z,950.08
2017-07-11T06:19:01.400Z,950.11
2017-07-11T06:20:01.398Z,950.1
2017-07-11T06:21:01.393Z,950.12
2017-07-11T06:22:01.389Z,950.11
2017-07-11T06:23:01.386Z,950.12
2017-07-11T06:24:01.383Z,950.16
2017-07-11T06:25:01.380Z,950.19
2017-07-11T06:26:01.382Z,950.22
2017-07-11T06:27:01.373Z,950.19
2017-07-11T06:28:01.372Z,950.22
2017-07-11T06:29:01.370Z,950.21
2017-07-11T06:30:01.367Z,950.22
2017-07-11T06:31:01.372Z,950.25
2017-07-11T06:32:01.360Z,950.24
2017-07-11T06:33:01.362Z,950.24
2017-07-11T06:34:01.393Z,950.23
2017-07-11T06:35:01.350Z,950.25
2017-07-11T06:36:01.366Z,950.27
2017-07-11T06:37:01.345Z,950.26
2017-07-11T06:38:01.409Z,950.26
2017-07-11T06:39:01.337Z,950.26
2017-07-11T06:40:01.352Z,950.26
2017-07-11T06:41:01.334Z,950.3
2017-07-11T06:42:01.353Z,950.32
2017-07-11T06:43:01.329Z,950.3
2017-07-11T06:44:01.326Z,950.32
2017-07-11T06:45:01.323Z,950.32
2017-07-11T06:46:01.335Z,950.33
2017-07-11T06:47:01.323Z,950.31
2017-07-11T06:48:01.358Z,950.38
2017-07-11T06:49:01.311Z,950.34
2017-07-11T06:50:01.341Z,950.37
2017-07-11T06:51:01.324Z,950.39
2017-07-11T06:52:01.355Z,950.43
2017-07-11T06:53:01.303Z,950.43
2017-07-11T06:54:01.303Z,950.43
2017-07-11T06:55:01.308Z,950.46
2017-07-11T06:56:01.304Z,950.44
2017-07-11T06:57:01.306Z,950.45
2017-07-11T06:58:01.293Z,950.43
2017-07-11T06:59:01.284Z,950.46
2017-07-11T07:00:01.284Z,950.44
2017-07-11T07:01:01.277Z,950.44
2017-07-11T07:02:01.292Z,950.46
2017-07-11T07:03:01.273Z,950.47
2017-07-11T07:04:01.313Z,950.47
2017-07-11T07:05:01.268Z,950.45
2017-07-11T07:06:01.280Z,950.47
2017-07-11T07:07:01.260Z,950.47
2017-07-11T07:08:01.305Z,950.5
2017-07-11T07:09:01.272Z,950.5
2017-07-11T07:10:01.265Z,950.51
2017-07-11T07:11:01.271Z,950.5
2017-07-11T07:12:01.266Z,950.51
2017-07-11T07:13:01.278Z,950.48
2017-07-11T07:14:01.275Z,950.51
2017-07-11T07:15:01.243Z,950.54
2017-07-11T07:16:01.260Z,950.45
2017-07-11T07:17:01.239Z,950.51
2017-07-11T07:18:01.232Z,950.48
2017-07-11T07:19:01.263Z,950.51
2017-07-11T07:20:01.230Z,950.55
2017-07-11T07:21:01.290Z,950.56
2017-07-11T07:22:01.230Z,950.55
2017-07-11T07:23:01.235Z,950.57
2017-07-11T07:24:01.265Z,950.59
2017-07-11T07:25:01.216Z,950.62
2017-07-11T07:26:01.231Z,950.65
2017-07-11T07:27:01.229Z,950.64
2017-07-11T07:28:01.204Z,950.65
2017-07-11T07:29:01.214Z,950.64
2017-07-11T07:30:01.211Z,950.64
2017-07-11T07:31:01.206Z,950.66
2017-07-11T07:32:01.204Z,950.68
2017-07-11T07:33:01.283Z,950.64
2017-07-11T07:34:01.201Z,950.73
2017-07-11T07:35:01.187Z,950.64
2017-07-11T07:36:01.197Z,950.71
2017-07-11T07:37:01.182Z,950.71
2017-07-11T07:38:01.190Z,950.67
2017-07-11T07:39:01.196Z,950.65
2017-07-11T07:40:01.206Z,950.66
2017-07-11T07:41:01.172Z,950.68
2017-07-11T07:42:01.164Z,950.73
2017-07-11T07:43:01.162Z,950.71
2017-07-11T07:44:01.159Z,950.7
2017-07-11T07:45:01.236Z,950.73
2017-07-11T07:46:01.175Z,950.74
2017-07-11T07:47:01.214Z,950.72
2017-07-11T07:48:01.170Z,950.72
2017-07-11T07:49:01.226Z,950.73
2017-07-11T07:50:01.143Z,950.78
2017-07-11T07:51:01.148Z,950.81
2017-07-11T07:52:01.175Z,950.77
2017-07-11T07:53:01.147Z,950.8
2017-07-11T07:54:01.132Z,950.79
2017-07-11T07:55:01.163Z,950.77
2017-07-11T07:56:01.133Z,950.85
2017-07-11T07:57:01.144Z,950.88
2017-07-11T07:58:01.191Z,950.88
2017-07-11T07:59:01.153Z,950.94
2017-07-11T08:00:01.125Z,950.9
2017-07-11T08:01:01.161Z,950.92
2017-07-11T08:02:01.119Z,950.94
2017-07-11T08:03:01.130Z,950.95
2017-07-11T08:04:01.124Z,950.93
2017-07-11T08:05:01.114Z,950.9
2017-07-11T08:06:01.105Z,950.9
2017-07-11T08:07:01.132Z,950.96
2017-07-11T08:08:01.102Z,950.92
2017-07-11T08:09:01.162Z,950.93
2017-07-11T08:10:01.125Z,950.88
2017-07-11T08:11:01.120Z,950.89
2017-07-11T08:12:01.088Z,950.91
2017-07-11T08:13:01.089Z,950.89
2017-07-11T08:14:01.080Z,950.94
2017-07-11T08:15:01.079Z,950.89
2017-07-11T08:16:01.076Z,950.92
2017-07-11T08:17:01.075Z,950.96
2017-07-11T08:18:01.132Z,950.93
2017-07-11T08:19:01.113Z,950.93
2017-07-11T08:20:01.069Z,950.96
2017-07-11T08:21:01.073Z,950.98
2017-07-11T08:22:01.073Z,950.96
2017-07-11T08:23:01.078Z,951.03
2017-07-11T08:24:01.079Z,951.04
2017-07-11T08:25:01.076Z,951.02
2017-07-11T08:26:01.064Z,951.06
2017-07-11T08:27:01.117Z,951.03
2017-07-11T08:28:01.053Z,951.06
2017-07-11T08:29:01.051Z,951.05
2017-07-11T08:30:01.056Z,951.06
2017-07-11T08:31:01.047Z,951.04
2017-07-11T08:32:01.048Z,951.09
2017-07-11T08:33:01.088Z,951.09
2017-07-11T08:34:01.057Z,951.05
2017-07-11T08:35:01.063Z,951.02
2017-07-11T08:36:01.056Z,951.05
2017-07-11T08:37:01.038Z,951.04
2017-07-11T08:38:01.037Z,951.04
2017-07-11T08:39:01.037Z,951.06
2017-07-11T08:40:01.079Z,951.08
2017-07-11T08:41:01.035Z,951.06
2017-07-11T08:42:01.054Z,951.08
2017-07-11T08:43:01.031Z,951.08
2017-07-11T08:44:01.095Z,951.05
2017-07-11T08:45:01.028Z,951.04
2017-07-11T08:46:01.033Z,951.08
2017-07-11T08:47:01.026Z,951.08
2017-07-11T08:48:01.104Z,951.06
2017-07-11T08:49:01.023Z,951.06
2017-07-11T08:50:01.047Z,951.11
2017-07-11T08:51:01.023Z,951.09
2017-07-11T08:52:01.037Z,951.05
2017-07-11T08:53:01.052Z,951.09
2017-07-11T08:54:01.054Z,951.08
2017-07-11T08:55:01.020Z,951.16
2017-07-11T08:56:01.043Z,951.13
2017-07-11T08:57:01.017Z,951.12
2017-07-11T08:58:01.078Z,951.15
2017-07-11T08:59:01.043Z,951.17
2017-07-11T09:00:01.056Z,951.2
2017-07-11T09:01:01.017Z,951.18
2017-07-11T09:02:01.048Z,951.2
2017-07-11T09:03:01.045Z,951.19
2017-07-11T09:04:01.026Z,951.19
2017-07-11T09:05:01.021Z,951.22
2017-07-11T09:06:01.034Z,951.19
2017-07-11T09:07:01.017Z,951.22
2017-07-11T09:08:01.050Z,951.27
2017-07-11T09:09:01.016Z,951.28
2017-07-11T09:10:01.062Z,951.2
2017-07-11T09:11:01.016Z,951.25
2017-07-11T09:12:01.045Z,951.29
2017-07-11T09:13:01.017Z,951.26
2017-07-11T09:14:01.017Z,951.24
2017-07-11T09:15:01.018Z,951.27
2017-07-11T09:16:01.044Z,951.26
2017-07-11T09:17:01.019Z,951.25
2017-07-11T09:18:01.049Z,951.26
2017-07-11T09:19:01.031Z,951.28
2017-07-11T09:20:01.040Z,951.19
2017-07-11T09:21:01.021Z,951.25
2017-07-11T09:22:01.020Z,951.27
2017-07-11T09:23:01.023Z,951.23
2017-07-11T09:24:01.033Z,951.25
2017-07-11T09:25:01.025Z,951.28
2017-07-11T09:26:01.054Z,951.26
2017-07-11T09:27:01.044Z,951.28
2017-07-11T09:28:01.141Z,951.29
2017-07-11T09:29:01.041Z,951.3
2017-07-11T09:30:01.027Z,951.29
2017-07-11T09:31:01.030Z,951.34
2017-07-11T09:32:01.051Z,951.32
2017-07-11T09:33:01.031Z,951.31
2017-07-11T09:34:01.033Z,951.27
2017-07-11T09:35:01.058Z,951.33
2017-07-11T09:36:01.060Z,951.29
2017-07-11T09:37:01.036Z,951.3
2017-07-11T09:38:01.059Z,951.33
2017-07-11T09:39:01.040Z,951.31
2017-07-11T09:40:01.042Z,951.32
2017-07-11T09:41:01.045Z,951.29
2017-07-11T09:42:01.067Z,951.27
2017-07-11T09:43:01.074Z,951.32
2017-07-11T09:44:01.049Z,951.28
2017-07-11T09:45:01.048Z,951.3
2017-07-11T09:46:01.082Z,951.36
2017-07-11T09:47:01.096Z,951.33
2017-07-11T09:48:01.069Z,951.34
2017-07-11T09:49:01.081Z,951.39
2017-07-11T09:50:01.080Z,951.4
2017-07-11T09:51:01.057Z,951.38
2017-07-11T09:52:01.082Z,951.44
2017-07-11T09:53:01.079Z,951.39
2017-07-11T09:54:01.067Z,951.45
2017-07-11T09:55:01.063Z,951.44
2017-07-11T09:56:01.087Z,951.41
2017-07-11T09:57:01.164Z,951.42
2017-07-11T09:58:01.097Z,951.45
2017-07-11T09:59:01.067Z,951.45
2017-07-11T10:00:01.105Z,951.47
2017-07-11T10:01:01.113Z,951.44
2017-07-11T10:02:01.130Z,951.44
2017-07-11T10:03:01.129Z,951.43
2017-07-11T10:04:01.083Z,951.49
2017-07-11T10:05:01.085Z,951.48
2017-07-11T10:06:01.089Z,951.48
2017-07-11T10:07:01.150Z,951.42
2017-07-11T10:08:01.105Z,951.43
2017-07-11T10:09:01.083Z,951.38
2017-07-11T10:10:01.106Z,951.38
2017-07-11T10:11:01.085Z,951.3
2017-07-11T10:12:01.151Z,951.34
2017-07-11T10:13:01.134Z,951.32
2017-07-11T10:14:01.091Z,951.34
2017-07-11T10:15:01.096Z,951.36
2017-07-11T10:16:01.093Z,951.36
2017-07-11T10:17:01.146Z,951.36
2017-07-11T10:18:01.123Z,951.4
2017-07-11T10:19:01.109Z,951.41
2017-07-11T10:20:01.115Z,951.38
2017-07-11T10:21:01.102Z,951.43
2017-07-11T10:22:01.121Z,951.38
2017-07-11T10:23:01.138Z,951.42
2017-07-11T10:24:01.106Z,951.47
2017-07-11T10:25:01.108Z,951.4
2017-07-11T10:26:01.120Z,951.44
2017-07-11T10:27:01.183Z,951.47
2017-07-11T10:28:01.144Z,951.43
2017-07-11T10:29:01.200Z,951.45
2017-07-11T10:30:01.124Z,951.45
2017-07-11T10:31:01.156Z,951.44
2017-07-11T10:32:01.141Z,951.36
2017-07-11T10:33:01.148Z,951.4
2017-07-11T10:34:01.146Z,951.35
2017-07-11T10:35:01.165Z,951.32
2017-07-11T10:36:01.134Z,951.28
2017-07-11T10:37:01.146Z,951.33
2017-07-11T10:38:01.163Z,951.36
2017-07-11T10:39:01.227Z,951.37
2017-07-11T10:40:01.147Z,951.32
2017-07-11T10:41:01.171Z,951.29
2017-07-11T10:42:01.207Z,951.26
2017-07-11T10:43:01.157Z,951.23
2017-07-11T10:44:01.158Z,951.27
2017-07-11T10:45:01.249Z,951.23
2017-07-11T10:46:01.157Z,951.19
2017-07-11T10:47:01.167Z,951.2
2017-07-11T10:48:01.200Z,951.24
2017-07-11T10:49:01.210Z,951.24
2017-07-11T10:50:01.167Z,951.22
2017-07-11T10:51:01.320Z,951.27
2017-07-11T10:52:01.188Z,951.26
2017-07-11T10:53:01.181Z,951.25
2017-07-11T10:54:01.176Z,951.24
2017-07-11T10:55:01.207Z,951.2
2017-07-11T10:56:01.200Z,951.19
2017-07-11T10:57:01.213Z,951.21
2017-07-11T10:58:01.193Z,951.15
2017-07-11T10:59:01.220Z,951.08
2017-07-11T11:00:01.191Z,951.09
2017-07-11T11:01:01.196Z,951.15
2017-07-11T11:02:01.268Z,951.09
2017-07-11T11:03:01.216Z,951.11
2017-07-11T11:04:01.247Z,951.15
2017-07-11T11:05:01.201Z,951.11
2017-07-11T11:06:01.230Z,951.2
2017-07-11T11:07:01.243Z,951.18
2017-07-11T11:08:01.207Z,951.16
2017-07-11T11:09:01.243Z,951.21
2017-07-11T11:10:01.240Z,951.21
2017-07-11T11:11:01.246Z,951.17
2017-07-11T11:12:01.218Z,951.17
2017-07-11T11:13:01.238Z,951.21
2017-07-11T11:14:01.227Z,951.17
2017-07-11T11:15:01.248Z,951.23
2017-07-11T11:16:01.388Z,951.22
2017-07-11T11:17:01.278Z,951.18
2017-07-11T11:18:01.272Z,951.21
2017-07-11T11:19:01.233Z,951.28
2017-07-11T11:20:01.257Z,951.32
2017-07-11T11:21:01.251Z,951.21
2017-07-11T11:22:01.242Z,951.22
2017-07-11T11:23:01.270Z,951.23
2017-07-11T11:24:01.462Z,951.21
2017-07-11T11:25:01.292Z,951.19
2017-07-11T11:26:01.278Z,951.24
2017-07-11T11:27:01.269Z,951.15
2017-07-11T11:28:01.253Z,951.14
2017-07-11T11:29:01.259Z,951.13
2017-07-11T11:30:01.259Z,951.14
2017-07-11T11:31:01.261Z,951.2
2017-07-11T11:32:01.272Z,951.24
2017-07-11T11:33:01.291Z,951.19
2017-07-11T11:34:01.275Z,951.19
2017-07-11T11:35:01.288Z,951.21
2017-07-11T11:36:01.290Z,951.23
2017-07-11T11:37:01.274Z,951.21
2017-07-11T11:38:01.305Z,951.17
2017-07-11T11:39:01.282Z,951.17
2017-07-11T11:40:01.306Z,951.16
2017-07-11T11:41:01.353Z,951.11
2017-07-11T11:42:01.355Z,951.22
2017-07-11T11:43:01.303Z,951.2
2017-07-11T11:44:01.292Z,951.21
2017-07-11T11:45:01.300Z,951.2
2017-07-11T11:46:01.298Z,951.27
2017-07-11T11:47:01.300Z,951.25
2017-07-11T11:48:01.301Z,951.31
2017-07-11T11:49:01.317Z,951.28
2017-07-11T11:50:01.330Z,951.24
2017-07-11T11:51:01.328Z,951.25
2017-07-11T11:52:01.350Z,951.31
2017-07-11T11:53:01.350Z,951.35
2017-07-11T11:54:01.356Z,951.34
2017-07-11T11:55:01.317Z,951.4
2017-07-11T11:56:01.371Z,951.47
2017-07-11T11:57:01.320Z,951.47
2017-07-11T11:58:01.348Z,951.6
2017-07-11T11:59:01.324Z,951.58
2017-07-11T12:00:01.327Z,951.71
2017-07-11T12:01:01.329Z,951.78
2017-07-11T12:02:01.374Z,951.72
2017-07-11T12:03:01.329Z,951.66
2017-07-11T12:04:01.376Z,951.73
2017-07-11T12:05:01.333Z,951.76
2017-07-11T12:06:01.399Z,951.74
2017-07-11T12:07:01.334Z,951.71
2017-07-11T12:08:01.342Z,951.72
2017-07-11T12:09:01.340Z,951.74
2017-07-11T12:10:01.352Z,951.76
2017-07-11T12:11:01.336Z,951.71
2017-07-11T12:12:01.336Z,951.74
2017-07-11T12:13:01.358Z,951.66
2017-07-11T12:14:01.355Z,951.69
2017-07-11T12:15:01.355Z,951.68
2017-07-11T12:16:01.341Z,951.69
2017-07-11T12:17:01.336Z,951.65
2017-07-11T12:18:01.335Z,951.66
2017-07-11T12:19:01.342Z,951.69
2017-07-11T12:20:01.348Z,951.64
2017-07-11T12:21:01.335Z,951.65
2017-07-11T12:22:01.359Z,951.64
2017-07-11T12:23:01.343Z,951.62
2017-07-11T12:24:01.357Z,951.66
2017-07-11T12:25:01.336Z,951.64
2017-07-11T12:26:01.348Z,951.65
2017-07-11T12:27:01.336Z,951.6
2017-07-11T12:28:01.379Z,951.62
2017-07-11T12:29:01.354Z,951.63
2017-07-11T12:30:01.338Z,951.66